Time;durP1;ratioP1;P1;durP2;ratioP2;P2;SDS_P1;SDS_P2;PMS_P1;PMS_P2;Temp;Humidity;BMP_temperature;BMP_pressure;BME280_temperature;BME280_humidity;BME280_pressure;Samples;Min_cycle;Max_cycle;Signal;HPM_P1;HPM_P2
2021/10/10 00:01:00;;;;;;;14.50;7.00;;;;;;;3.01;84.36;102276.67;113493;1192;61016;-82
2021/10/10 00:03:27;;;;;;;13.50;6.40;;;;;;;2.97;84.29;102278.13;113357;1192;74328;-81
2021/10/10 00:05:53;;;;;;;13.00;6.80;;;;;;;2.92;84.34;102276.47;112706;1192;60969;-80
2021/10/10 00:08:20;;;;;;;9.90;6.40;;;;;;;2.89;84.57;102273.85;112636;1193;61683;-79
2021/10/10 00:10:46;;;;;;;13.20;5.60;;;;;;;2.85;84.58;102274.02;112666;1191;61029;-81
2021/10/10 00:13:13;;;;;;;12.20;6.10;;;;;;;2.83;84.65;102275.56;112682;1192;60959;-81
2021/10/10 00:15:40;;;;;;;10.90;5.90;;;;;;;2.81;85.02;102274.42;112682;1192;74979;-80
2021/10/10 00:18:07;;;;;;;11.10;5.80;;;;;;;2.78;84.98;102274.95;112722;1193;70941;-79
2021/10/10 00:20:34;;;;;;;15.40;6.20;;;;;;;2.75;84.99;102276.54;112787;1192;72270;-80
2021/10/10 00:23:01;;;;;;;11.70;6.40;;;;;;;2.72;84.95;102273.35;112721;1191;61072;-80
2021/10/10 00:25:32;;;;;;;13.90;6.50;;;;;;;2.70;85.05;102271.95;112744;1193;61313;-81
2021/10/10 00:27:58;;;;;;;12.80;6.60;;;;;;;2.68;84.89;102268.38;112601;1193;61064;-80
2021/10/10 00:30:25;;;;;;;13.30;6.80;;;;;;;2.67;85.53;102271.36;112673;1192;72052;-81
2021/10/10 00:32:52;;;;;;;16.50;6.60;;;;;;;2.67;85.63;102269.46;112563;1192;74386;-81
2021/10/10 00:35:18;;;;;;;12.40;6.00;;;;;;;2.65;85.42;102270.81;112548;1192;61013;-82
2021/10/10 00:37:45;;;;;;;12.40;6.30;;;;;;;2.61;85.63;102272.05;112601;1192;61278;-81
2021/10/10 00:40:13;;;;;;;9.50;6.10;;;;;;;2.57;85.77;102266.16;112784;1192;75575;-83
2021/10/10 00:42:41;;;;;;;10.60;6.30;;;;;;;2.52;85.65;102267.85;112829;1192;71344;-80
2021/10/10 00:45:08;;;;;;;13.90;6.70;;;;;;;2.46;85.82;102265.03;112650;1193;73611;-84
2021/10/10 00:47:37;;;;;;;16.80;6.80;;;;;;;2.41;85.87;102261.23;112559;1193;61529;-81
2021/10/10 00:50:06;;;;;;;12.00;6.40;;;;;;;2.39;86.17;102262.60;112637;1192;61022;-81
2021/10/10 00:52:40;;;;;;;13.70;7.10;;;;;;;2.36;86.17;102264.15;112666;1193;74593;-82
2021/10/10 00:55:08;;;;;;;12.20;6.50;;;;;;;2.33;86.33;102262.42;112619;1193;72427;-82
2021/10/10 00:57:38;;;;;;;9.40;5.50;;;;;;;2.29;86.38;102265.25;113866;1192;73771;-82
2021/10/10 01:00:08;;;;;;;14.20;5.90;;;;;;;2.25;86.70;102259.17;113750;1192;61078;-82
2021/10/10 01:02:36;;;;;;;13.00;6.50;;;;;;;2.22;87.23;102258.77;112823;1192;60984;-82
2021/10/10 01:05:03;;;;;;;12.60;7.50;;;;;;;2.20;87.41;102254.73;112737;1192;74144;-81
2021/10/10 01:07:30;;;;;;;12.80;6.80;;;;;;;2.19;87.41;102254.98;112619;1192;72382;-82
2021/10/10 01:09:59;;;;;;;13.30;7.00;;;;;;;2.17;87.22;102255.57;112640;1192;60973;-81
2021/10/10 01:12:26;;;;;;;14.40;6.30;;;;;;;2.14;87.11;102251.23;112798;1192;62001;-80
2021/10/10 01:14:53;;;;;;;11.70;6.50;;;;;;;2.11;87.27;102254.14;112721;1193;61237;-81
2021/10/10 01:17:23;;;;;;;11.20;6.40;;;;;;;2.08;87.82;102253.09;112776;1193;75996;-81
2021/10/10 01:19:52;;;;;;;14.20;6.20;;;;;;;2.07;88.19;102249.88;112879;1192;72163;-82
2021/10/10 01:22:19;;;;;;;12.00;5.80;;;;;;;2.05;88.19;102248.52;112834;1192;72768;-82
2021/10/10 01:24:46;;;;;;;12.00;6.50;;;;;;;2.03;87.98;102247.27;112609;1192;62271;-82
2021/10/10 01:27:13;;;;;;;14.00;7.30;;;;;;;2.00;87.63;102242.00;112606;1193;61035;-81
2021/10/10 01:29:40;;;;;;;12.20;6.60;;;;;;;1.98;87.93;102240.89;112840;1193;75643;-82
2021/10/10 01:32:07;;;;;;;12.80;7.00;;;;;;;1.94;87.43;102244.59;112751;1192;72062;-81
2021/10/10 01:34:34;;;;;;;11.90;6.40;;;;;;;1.88;87.49;102241.77;112942;1192;74736;-80
2021/10/10 01:37:04;;;;;;;11.30;6.20;;;;;;;1.81;87.35;102238.61;112904;1193;62151;-81
2021/10/10 01:39:30;;;;;;;12.60;6.40;;;;;;;1.78;88.02;102233.58;112835;1183;61309;-81
2021/10/10 01:41:57;;;;;;;13.00;6.10;;;;;;;1.73;87.92;102230.19;112766;1192;75611;-82
2021/10/10 01:44:24;;;;;;;13.00;6.50;;;;;;;1.68;87.88;102224.86;112628;1192;71093;-82
2021/10/10 01:46:50;;;;;;;13.10;7.30;;;;;;;1.64;88.09;102222.08;112729;1192;72531;-79
2021/10/10 01:49:17;;;;;;;12.90;6.10;;;;;;;1.60;87.87;102220.53;112649;1192;61053;-82
2021/10/10 01:51:44;;;;;;;13.20;6.80;;;;;;;1.58;88.14;102218.17;112680;1192;61382;-79
2021/10/10 01:54:10;;;;;;;11.10;5.80;;;;;;;1.55;88.00;102213.61;112612;1192;62288;-81
2021/10/10 01:56:37;;;;;;;9.90;6.00;;;;;;;1.52;88.08;102211.88;112756;1191;71728;-81
2021/10/10 01:59:03;;;;;;;14.40;6.50;;;;;;;1.48;88.17;102210.52;112632;1192;72704;-81
2021/10/10 02:01:30;;;;;;;15.30;6.50;;;;;;;1.44;88.47;102215.06;112700;1192;61049;-82
2021/10/10 02:03:57;;;;;;;12.20;6.20;;;;;;;1.40;88.54;102213.38;113038;1192;61224;-81
2021/10/10 02:06:25;;;;;;;15.20;7.50;;;;;;;1.36;88.59;102214.59;112730;1192;74707;-80
2021/10/10 02:08:51;;;;;;;12.40;7.60;;;;;;;1.34;88.80;102208.96;112717;1192;72644;-83
2021/10/10 02:11:18;;;;;;;14.90;8.90;;;;;;;1.32;88.95;102212.52;112638;1192;72562;-81
2021/10/10 02:13:45;;;;;;;16.90;7.90;;;;;;;1.32;89.24;102209.58;112668;1192;62838;-82
2021/10/10 02:16:11;;;;;;;13.90;8.10;;;;;;;1.33;89.51;102206.93;112688;1192;61236;-84
2021/10/10 02:18:38;;;;;;;14.40;7.60;;;;;;;1.35;89.83;102204.22;112696;1192;74567;-83
2021/10/10 02:21:04;;;;;;;16.20;6.70;;;;;;;1.35;89.81;102197.56;112748;1193;60973;-81
2021/10/10 02:23:31;;;;;;;14.70;7.80;;;;;;;1.36;90.20;102198.92;112825;1192;71951;-81
2021/10/10 02:25:58;;;;;;;16.00;6.60;;;;;;;1.36;90.18;102193.70;112820;1193;61650;-81
2021/10/10 02:28:24;;;;;;;12.30;6.80;;;;;;;1.34;89.93;102191.52;112747;1192;61027;-83
2021/10/10 02:30:52;;;;;;;13.40;8.00;;;;;;;1.32;89.89;102190.42;112689;1191;59701;-81
2021/10/10 02:33:19;;;;;;;14.70;8.50;;;;;;;1.31;89.88;102191.85;112690;1192;71164;-80
2021/10/10 02:35:45;;;;;;;16.30;8.50;;;;;;;1.29;89.78;102184.29;112535;1193;72527;-79
2021/10/10 02:38:12;;;;;;;17.20;7.60;;;;;;;1.27;89.87;102184.41;112499;1191;61108;-81
2021/10/10 02:40:39;;;;;;;17.90;7.90;;;;;;;1.27;90.18;102181.29;112517;1193;61434;-81
2021/10/10 02:43:06;;;;;;;13.20;7.70;;;;;;;1.27;90.33;102179.88;112601;1193;74699;-81
2021/10/10 02:45:33;;;;;;;11.50;6.40;;;;;;;1.27;90.64;102177.77;112676;1193;71152;-81
2021/10/10 02:48:00;;;;;;;11.80;6.30;;;;;;;1.27;90.95;102177.77;112669;1193;62158;-82
2021/10/10 02:50:26;;;;;;;14.20;8.10;;;;;;;1.26;90.74;102176.26;112599;1192;61114;-81
2021/10/10 02:52:55;;;;;;;12.70;6.80;;;;;;;1.23;90.51;102176.75;112565;1191;61144;-81
2021/10/10 02:55:22;;;;;;;13.80;7.80;;;;;;;1.20;90.64;102173.21;112639;1193;75660;-81
2021/10/10 02:57:49;;;;;;;15.10;9.00;;;;;;;1.20;90.60;102171.16;112539;1193;70865;-81
2021/10/10 03:00:15;;;;;;;18.50;8.80;;;;;;;1.20;90.80;102168.17;112634;1192;74036;-81
2021/10/10 03:02:42;;;;;;;15.80;8.40;;;;;;;1.20;90.83;102163.63;112623;1193;62147;-80
2021/10/10 03:05:09;;;;;;;12.00;7.60;;;;;;;1.20;91.18;102159.97;112761;1192;61264;-81
2021/10/10 03:07:38;;;;;;;17.40;7.50;;;;;;;1.21;91.12;102159.92;112644;1193;75639;-81
2021/10/10 03:10:05;;;;;;;12.90;7.20;;;;;;;1.19;91.13;102161.58;112654;1193;72010;-82
2021/10/10 03:12:32;;;;;;;13.50;7.00;;;;;;;1.19;91.33;102163.16;112550;1193;73463;-79
2021/10/10 03:14:59;;;;;;;12.90;7.00;;;;;;;1.18;91.45;102160.45;112575;1192;61081;-81
2021/10/10 03:17:25;;;;;;;17.20;8.20;;;;;;;1.16;91.33;102160.52;112667;1192;61062;-80
2021/10/10 03:19:52;;;;;;;14.30;8.00;;;;;;;1.16;91.19;102160.55;112725;1192;61049;-81
2021/10/10 03:22:18;;;;;;;17.40;8.60;;;;;;;1.14;90.93;102161.35;112613;1192;61020;-80
2021/10/10 03:24:44;;;;;;;14.90;7.60;;;;;;;1.12;91.00;102151.51;112653;1192;62106;-81
2021/10/10 03:27:11;;;;;;;17.40;7.60;;;;;;;1.12;91.35;102152.36;112629;1192;61588;-81
2021/10/10 03:29:38;;;;;;;13.00;7.30;;;;;;;1.13;91.31;102151.14;112663;1192;61056;-81
2021/10/10 03:32:05;;;;;;;13.90;7.90;;;;;;;1.12;91.29;102146.98;112919;1192;75352;-79
2021/10/10 03:34:31;;;;;;;12.00;7.20;;;;;;;1.08;90.90;102153.79;112670;1193;70933;-81
2021/10/10 03:36:58;;;;;;;17.40;7.50;;;;;;;1.02;90.59;102153.39;112635;1193;72558;-81
2021/10/10 03:39:24;;;;;;;12.80;6.20;;;;;;;0.98;90.82;102154.33;112759;1192;61052;-81
2021/10/10 03:41:51;;;;;;;12.50;7.90;;;;;;;0.93;90.85;102147.59;112629;1192;61093;-82
2021/10/10 03:44:18;;;;;;;14.30;8.00;;;;;;;0.90;90.82;102146.88;112533;1193;60966;-80
2021/10/10 03:46:44;;;;;;;13.80;8.10;;;;;;;0.85;90.55;102145.72;112583;1192;61788;-81
2021/10/10 03:49:12;;;;;;;17.30;8.10;;;;;;;0.79;90.47;102148.28;112591;1192;72615;-80
2021/10/10 03:51:38;;;;;;;13.80;7.80;;;;;;;0.74;90.78;102142.75;112735;1193;61177;-81
2021/10/10 03:56:51;;;;;;;21.30;8.10;;;;;;;0.70;91.11;102142.48;112615;1192;75580;-81
2021/10/10 03:59:20;;;;;;;14.10;8.20;;;;;;;0.69;91.30;102140.60;112853;1192;71161;-82
2021/10/10 04:01:47;;;;;;;13.70;7.80;;;;;;;0.69;91.61;102142.30;112613;1192;73089;-82
2021/10/10 04:04:14;;;;;;;12.90;8.40;;;;;;;0.69;91.87;102138.15;112624;1192;61024;-80
2021/10/10 04:06:41;;;;;;;13.50;7.80;;;;;;;0.69;92.12;102137.63;112579;1192;60950;-80
2021/10/10 04:09:07;;;;;;;14.10;7.50;;;;;;;0.69;92.04;102141.99;112987;1192;75602;-81
2021/10/10 04:11:34;;;;;;;14.40;7.10;;;;;;;0.65;91.64;102139.55;112862;1192;61036;-80
2021/10/10 04:14:00;;;;;;;16.30;7.30;;;;;;;0.62;91.72;102139.89;112689;1192;61091;-81
2021/10/10 04:16:27;;;;;;;17.00;7.90;;;;;;;0.62;91.75;102139.90;112639;1191;62159;-81
2021/10/10 04:18:54;;;;;;;17.10;8.90;;;;;;;0.61;91.90;102139.95;113172;1192;60976;-84
2021/10/10 04:21:20;;;;;;;17.40;8.00;;;;;;;0.59;91.82;102139.87;113361;1193;62157;-81
2021/10/10 04:23:47;;;;;;;13.30;7.80;;;;;;;0.55;91.57;102135.86;112658;1193;71413;-81
2021/10/10 04:26:13;;;;;;;18.10;8.00;;;;;;;0.55;91.91;102134.14;112692;1193;61162;-81
2021/10/10 04:28:40;;;;;;;17.00;9.10;;;;;;;0.54;92.05;102135.41;112604;1192;61058;-82
2021/10/10 04:31:06;;;;;;;15.60;7.90;;;;;;;0.52;92.04;102134.08;112658;1192;61039;-81
2021/10/10 04:33:34;;;;;;;13.40;8.00;;;;;;;0.52;92.27;102134.83;112608;1192;75204;-81
2021/10/10 04:36:00;;;;;;;13.70;7.20;;;;;;;0.53;92.68;102137.54;112591;1192;72104;-81
2021/10/10 04:38:27;;;;;;;13.90;7.50;;;;;;;0.53;92.73;102138.06;112627;1192;73888;-81
2021/10/10 04:40:54;;;;;;;14.70;7.30;;;;;;;0.51;92.53;102137.47;112508;1193;60988;-81
2021/10/10 04:43:20;;;;;;;14.30;7.20;;;;;;;0.48;92.48;102134.65;112647;1192;60979;-80
2021/10/10 04:45:47;;;;;;;15.00;8.20;;;;;;;0.43;92.24;102130.52;112703;1192;61087;-80
2021/10/10 04:48:13;;;;;;;20.50;10.30;;;;;;;0.39;92.06;102131.06;112870;1192;60966;-82
2021/10/10 04:50:40;;;;;;;15.20;8.70;;;;;;;0.35;92.05;102132.63;112806;1192;61045;-82
2021/10/10 04:53:06;;;;;;;18.70;10.00;;;;;;;0.32;92.31;102133.30;112769;1193;62225;-82
2021/10/10 04:55:34;;;;;;;19.00;8.90;;;;;;;0.30;92.60;102137.05;112662;1193;61052;-82
2021/10/10 04:58:01;;;;;;;18.70;9.60;;;;;;;0.30;92.91;102130.27;112724;1192;60978;-83
2021/10/10 05:00:27;;;;;;;24.70;9.40;;;;;;;0.31;93.18;102126.74;113121;1192;71495;-83
2021/10/10 05:02:54;;;;;;;16.80;9.20;;;;;;;0.32;93.08;102125.33;112860;1192;73290;-81
2021/10/10 05:05:21;;;;;;;17.40;8.30;;;;;;;0.32;93.43;102125.31;112741;1191;61067;-81
2021/10/10 05:07:48;;;;;;;18.30;8.10;;;;;;;0.33;93.90;102125.77;112638;1192;61057;-82
2021/10/10 05:10:14;;;;;;;15.60;8.50;;;;;;;0.32;93.62;102119.55;112654;1192;61427;-82
2021/10/10 05:12:41;;;;;;;20.90;10.20;;;;;;;0.30;93.34;102121.41;112650;1192;61001;-83
2021/10/10 05:15:08;;;;;;;17.40;9.50;;;;;;;0.29;93.36;102118.68;112613;1193;61138;-83
2021/10/10 05:17:35;;;;;;;19.80;8.80;;;;;;;0.27;93.42;102116.84;112588;1191;61187;-83
2021/10/10 05:20:02;;;;;;;19.20;10.00;;;;;;;0.25;93.21;102115.23;112654;1193;61056;-83
2021/10/10 05:22:28;;;;;;;16.60;9.40;;;;;;;0.23;93.36;102113.77;113047;1193;75838;-83
2021/10/10 05:24:57;;;;;;;17.00;8.90;;;;;;;0.22;93.38;102112.07;114474;1192;61066;-82
2021/10/10 05:27:25;;;;;;;19.00;10.00;;;;;;;0.21;93.20;102113.15;113901;1192;73812;-81
2021/10/10 05:29:51;;;;;;;19.10;8.80;;;;;;;0.18;92.89;102118.33;114790;1193;61068;-82
2021/10/10 05:32:18;;;;;;;16.90;8.90;;;;;;;0.16;92.92;102120.34;115324;1191;59593;-82
2021/10/10 05:34:45;;;;;;;15.30;8.40;;;;;;;0.16;93.36;102122.45;114057;1193;75798;-83
2021/10/10 05:37:11;;;;;;;14.90;8.30;;;;;;;0.15;93.24;102120.38;114957;1193;71205;-82
2021/10/10 05:39:38;;;;;;;13.60;7.40;;;;;;;0.15;93.60;102120.90;114667;1192;61072;-82
2021/10/10 05:42:04;;;;;;;14.60;8.10;;;;;;;0.15;93.67;102117.08;114693;1192;61052;-81
2021/10/10 05:44:31;;;;;;;14.20;8.40;;;;;;;0.15;93.57;102111.16;114440;1192;61030;-82
2021/10/10 05:46:58;;;;;;;15.90;9.10;;;;;;;0.14;93.16;102109.80;113742;1191;61065;-81
2021/10/10 05:49:25;;;;;;;17.90;9.20;;;;;;;0.15;93.21;102109.94;113344;1192;70983;-82
2021/10/10 05:51:52;;;;;;;15.80;9.10;;;;;;;0.15;93.21;102107.70;113509;1192;72568;-82
2021/10/10 05:54:19;;;;;;;15.50;8.20;;;;;;;0.13;93.21;102103.59;113278;1191;63236;-80
2021/10/10 05:56:45;;;;;;;13.60;8.00;;;;;;;0.11;93.03;102109.25;113641;1192;61008;-82
2021/10/10 05:59:15;;;;;;;15.70;9.40;;;;;;;0.09;93.03;102105.37;113346;1193;73992;-82
2021/10/10 06:01:41;;;;;;;10.90;7.30;;;;;;;0.07;93.23;102102.31;113606;1191;71111;-82
2021/10/10 06:04:08;;;;;;;16.10;7.60;;;;;;;0.06;93.15;102100.83;113842;1192;72587;-83
2021/10/10 06:06:35;;;;;;;14.20;7.10;;;;;;;0.04;93.22;102100.21;113477;1192;60947;-82
2021/10/10 06:09:05;;;;;;;14.90;6.90;;;;;;;0.03;93.30;102097.65;112889;1193;60943;-81
2021/10/10 06:11:34;;;;;;;12.60;6.40;;;;;;;0.03;93.52;102096.61;112714;1192;75178;-79
2021/10/10 06:14:02;;;;;;;13.50;7.20;;;;;;;0.02;93.48;102094.40;112548;1192;72677;-82
2021/10/10 06:16:29;;;;;;;11.10;6.10;;;;;;;0.02;93.57;102093.16;112632;1193;73628;-83
2021/10/10 06:18:58;;;;;;;16.60;8.60;;;;;;;0.04;93.68;102089.77;112782;1192;61831;-83
2021/10/10 06:21:24;;;;;;;17.10;9.10;;;;;;;0.07;93.87;102087.52;112920;1193;61210;-83
2021/10/10 06:23:53;;;;;;;15.50;8.90;;;;;;;0.12;93.90;102088.33;112808;1192;60956;-83
2021/10/10 06:26:21;;;;;;;14.20;8.70;;;;;;;0.18;94.20;102089.09;112948;1192;71741;-82
2021/10/10 06:28:48;;;;;;;23.50;10.20;;;;;;;0.26;94.50;102083.83;113147;1192;73632;-83
2021/10/10 06:31:15;;;;;;;19.10;9.00;;;;;;;0.37;94.73;102083.11;113068;1192;62928;-82
2021/10/10 06:33:42;;;;;;;15.80;8.60;;;;;;;0.51;94.86;102085.41;112673;1193;61078;-81
2021/10/10 06:36:08;;;;;;;19.40;9.80;;;;;;;0.64;94.98;102079.73;112587;1192;74695;-82
2021/10/10 06:38:35;;;;;;;18.00;8.50;;;;;;;0.80;95.15;102079.47;112881;1192;70985;-82
2021/10/10 06:41:02;;;;;;;17.60;9.20;;;;;;;0.94;95.10;102077.36;112937;1191;60964;-81
2021/10/10 06:43:28;;;;;;;14.80;8.20;;;;;;;1.08;94.92;102077.33;112817;1187;61029;-82
2021/10/10 06:45:55;;;;;;;14.80;7.90;;;;;;;1.21;94.93;102075.05;113203;1192;61318;-82
2021/10/10 06:48:22;;;;;;;17.20;8.00;;;;;;;1.34;94.50;102076.65;112992;1191;74467;-81
2021/10/10 06:50:48;;;;;;;15.00;7.90;;;;;;;1.45;94.21;102079.73;112939;1192;72100;-81
2021/10/10 06:53:15;;;;;;;15.50;8.20;;;;;;;1.57;93.98;102080.68;112819;1193;72775;-82
2021/10/10 06:55:42;;;;;;;20.30;8.90;;;;;;;1.71;93.87;102082.21;112821;1192;61496;-81
2021/10/10 06:58:08;;;;;;;13.00;7.50;;;;;;;1.85;93.62;102082.30;112795;1192;62281;-83
2021/10/10 07:00:35;;;;;;;15.30;8.60;;;;;;;1.97;93.24;102080.40;112861;1192;61026;-83
2021/10/10 07:03:02;;;;;;;19.00;7.00;;;;;;;2.12;93.10;102075.77;112748;1192;70996;-83
2021/10/10 07:05:28;;;;;;;11.00;6.80;;;;;;;2.25;92.59;102078.48;112745;1192;73871;-83
2021/10/10 07:07:55;;;;;;;14.10;7.80;;;;;;;2.38;92.33;102079.13;112820;1191;61110;-83
2021/10/10 07:10:21;;;;;;;16.20;9.40;;;;;;;2.53;92.33;102078.29;112778;1191;61045;-83
2021/10/10 07:12:48;;;;;;;13.60;7.90;;;;;;;2.70;92.48;102078.02;112654;1192;76197;-73
2021/10/10 07:15:14;;;;;;;14.60;7.60;;;;;;;2.84;92.23;102077.36;112390;1192;60979;-75
2021/10/10 07:17:41;;;;;;;13.40;7.10;;;;;;;2.99;91.84;102079.80;112341;1192;61052;-72
2021/10/10 07:25:08;;;;;;;10.70;5.70;;;;;;;3.40;90.45;102079.23;112347;1192;75396;-73
2021/10/10 07:27:39;;;;;;;10.40;5.30;;;;;;;3.54;89.77;102086.27;112274;1192;71315;-71
2021/10/10 07:30:08;;;;;;;6.50;4.40;;;;;;;3.68;89.42;102091.36;112367;1192;72630;-72
2021/10/10 07:32:34;;;;;;;7.30;4.00;;;;;;;3.81;88.08;102099.13;112485;1193;61285;-71
2021/10/10 07:35:03;;;;;;;12.70;6.90;;;;;;;3.91;87.60;102099.17;112358;1192;60972;-74
2021/10/10 07:37:29;;;;;;;13.80;6.20;;;;;;;4.06;87.76;102096.86;113571;1192;74825;-73
2021/10/10 07:39:56;;;;;;;13.10;6.20;;;;;;;4.22;87.61;102095.44;112308;1192;72007;-72
2021/10/10 07:42:27;;;;;;;11.50;6.70;;;;;;;4.39;87.13;102095.61;112464;1193;72543;-72
2021/10/10 07:44:57;;;;;;;11.20;6.90;;;;;;;4.58;87.31;102097.48;112052;1192;60989;-72
2021/10/10 07:49:53;;;;;;;10.30;6.10;;;;;;;4.90;84.85;102090.12;112275;1193;76185;-73
2021/10/10 07:52:20;;;;;;;12.00;5.80;;;;;;;5.03;84.72;102092.59;112240;1192;71732;-72
2021/10/10 07:54:47;;;;;;;8.40;4.70;;;;;;;5.13;84.13;102091.35;112496;1193;71936;-74
2021/10/10 07:57:13;;;;;;;13.30;5.30;;;;;;;5.22;83.94;102094.09;112280;1192;61007;-71
2021/10/10 07:59:40;;;;;;;11.20;6.30;;;;;;;5.36;84.34;102098.40;112217;1193;61056;-73
2021/10/10 08:02:07;;;;;;;9.00;4.90;;;;;;;5.50;84.03;102093.36;112137;1193;60968;-74
2021/10/10 08:04:33;;;;;;;8.80;5.20;;;;;;;5.64;83.23;102097.98;112591;1192;71168;-73
2021/10/10 08:07:00;;;;;;;8.60;5.50;;;;;;;5.78;82.27;102098.95;112142;1193;60979;-73
2021/10/10 08:09:26;;;;;;;10.80;6.20;;;;;;;5.92;81.79;102097.26;112213;1193;61036;-74
2021/10/10 08:11:53;;;;;;;9.30;4.80;;;;;;;6.07;81.79;102097.40;112253;1192;61033;-74
2021/10/10 08:14:19;;;;;;;7.90;4.70;;;;;;;6.21;81.32;102095.23;112224;1193;61039;-74
2021/10/10 08:16:46;;;;;;;11.20;6.40;;;;;;;6.35;80.86;102091.84;112362;1192;61400;-72
2021/10/10 08:19:13;;;;;;;7.10;4.80;;;;;;;6.55;80.85;102091.64;112354;1192;61065;-72
2021/10/10 08:21:39;;;;;;;8.10;5.00;;;;;;;6.72;79.40;102095.81;111991;1193;61106;-72
2021/10/10 08:24:06;;;;;;;8.10;3.80;;;;;;;6.85;79.33;102091.52;112238;1193;61090;-72
2021/10/10 08:26:33;;;;;;;8.50;6.40;;;;;;;6.97;78.33;102093.26;112225;1192;75271;-74
2021/10/10 08:29:01;;;;;;;8.60;5.40;;;;;;;7.11;77.63;102090.94;112800;1192;72402;-74
2021/10/10 08:31:28;;;;;;;7.50;4.10;;;;;;;7.24;77.30;102086.61;112609;1193;73806;-72
2021/10/10 08:33:55;;;;;;;10.30;4.10;;;;;;;7.35;77.03;102091.50;112321;1192;61158;-73
2021/10/10 08:36:41;;;;;;;9.40;5.30;;;;;;;7.49;75.76;102089.41;111937;1192;61464;-75
2021/10/10 08:39:08;;;;;;;9.30;4.90;;;;;;;7.64;76.20;102083.27;112341;1193;75655;-74
2021/10/10 08:41:36;;;;;;;8.90;4.50;;;;;;;7.80;75.21;102082.21;112328;1193;61140;-75
2021/10/10 08:44:04;;;;;;;9.70;4.50;;;;;;;7.95;74.09;102078.70;112320;1193;73652;-75
2021/10/10 08:46:34;;;;;;;8.20;4.60;;;;;;;8.10;73.31;102076.43;112049;1191;62900;-76
2021/10/10 08:49:04;;;;;;;9.30;4.90;;;;;;;8.24;73.23;102075.80;112126;1192;61990;-76
2021/10/10 08:51:35;;;;;;;7.10;4.10;;;;;;;8.38;72.66;102076.25;112182;1193;61081;-73
2021/10/10 08:54:02;;;;;;;9.90;4.60;;;;;;;8.53;71.84;102075.23;112014;1193;70295;-73
2021/10/10 08:56:29;;;;;;;10.60;5.30;;;;;;;8.69;71.51;102074.05;112308;1193;72779;-73
2021/10/10 08:59:03;;;;;;;8.70;5.00;;;;;;;8.88;71.14;102068.05;112121;1192;61776;-75
2021/10/10 09:01:33;;;;;;;9.90;4.50;;;;;;;9.03;70.77;102068.21;112249;1192;61053;-74
2021/10/10 09:04:00;;;;;;;5.00;3.30;;;;;;;9.15;69.75;102071.38;112110;1193;75683;-75
2021/10/10 09:06:31;;;;;;;9.90;5.10;;;;;;;9.29;68.43;102070.41;112272;1192;61039;-74
2021/10/10 09:09:35;;;;;;;9.80;5.30;;;;;;;9.41;68.92;102072.17;112362;1193;72518;-74
2021/10/10 09:12:05;;;;;;;7.00;3.80;;;;;;;9.60;67.88;102079.55;112410;1193;61052;-73
2021/10/10 09:14:41;;;;;;;8.40;4.80;;;;;;;9.77;66.73;102078.08;112264;1192;61068;-74
2021/10/10 09:17:10;;;;;;;11.20;5.80;;;;;;;9.97;66.93;102079.29;112063;1184;75620;-73
2021/10/10 09:19:37;;;;;;;6.10;3.70;;;;;;;10.20;65.78;102077.56;112438;1193;71756;-74
2021/10/10 09:22:06;;;;;;;7.60;4.80;;;;;;;10.41;65.07;102070.95;112198;1192;71543;-74
2021/10/10 09:24:34;;;;;;;7.60;4.50;;;;;;;10.55;63.88;102068.19;112356;1191;61049;-74
2021/10/10 09:27:14;;;;;;;8.20;5.00;;;;;;;10.70;64.38;102069.14;112326;1192;61033;-75
2021/10/10 09:29:45;;;;;;;10.80;5.80;;;;;;;10.86;63.35;102071.38;112277;1193;75019;-73
2021/10/10 09:32:18;;;;;;;11.40;4.40;;;;;;;10.95;61.71;102074.90;112348;1193;70961;-74
2021/10/10 09:34:46;;;;;;;8.00;4.30;;;;;;;11.07;62.22;102071.58;112268;1192;73943;-73
2021/10/10 09:37:23;;;;;;;10.00;4.30;;;;;;;11.15;61.56;102075.52;112317;1193;61776;-74
2021/10/10 09:42:45;;;;;;;7.10;4.60;;;;;;;11.51;61.04;102073.40;112153;1192;74677;-73
2021/10/10 09:45:28;;;;;;;7.10;4.50;;;;;;;11.71;60.30;102067.05;112210;1193;70985;-73
2021/10/10 09:48:02;;;;;;;7.80;5.00;;;;;;;11.85;58.38;102069.95;112241;1193;74207;-74
2021/10/10 09:50:33;;;;;;;9.40;4.10;;;;;;;11.97;58.64;102066.80;112225;1193;61038;-74
2021/10/10 09:53:07;;;;;;;8.70;5.20;;;;;;;12.13;56.93;102062.75;112447;1192;61065;-73
2021/10/10 09:55:35;;;;;;;;;;;;;;;12.24;55.28;102056.89;112330;1193;74038;-74
2021/10/10 09:58:02;;;;;;;9.30;4.90;;;;;;;12.31;55.54;102053.77;112098;1192;71763;-74
2021/10/10 10:00:34;;;;;;;9.90;3.70;;;;;;;12.45;56.60;102046.98;112421;1193;72706;-75
2021/10/10 10:03:07;;;;;;;8.50;3.70;;;;;;;12.67;56.81;102045.73;112152;1193;61046;-74
2021/10/10 10:05:34;;;;;;;8.80;3.60;;;;;;;12.85;56.00;102038.50;112150;1192;60994;-75
2021/10/10 10:08:01;;;;;;;7.60;4.30;;;;;;;13.00;55.15;102035.25;112167;1192;75339;-74
2021/10/10 10:10:31;;;;;;;7.80;4.10;;;;;;;13.09;54.08;102033.47;112027;1193;70955;-74
2021/10/10 10:12:59;;;;;;;9.40;4.60;;;;;;;13.11;53.68;102035.52;112236;1193;72624;-73
2021/10/10 10:15:28;;;;;;;7.30;4.40;;;;;;;13.12;52.25;102040.34;112318;1191;61314;-74
2021/10/10 10:17:57;;;;;;;7.60;4.40;;;;;;;13.14;52.11;102047.29;112344;1192;61046;-74
2021/10/10 10:20:26;;;;;;;7.10;4.10;;;;;;;13.23;52.20;102048.36;112152;1193;74614;-75
2021/10/10 10:22:54;;;;;;;6.20;3.50;;;;;;;13.41;52.70;102048.23;112147;1192;70690;-74
2021/10/10 10:25:23;;;;;;;7.90;4.20;;;;;;;13.65;53.21;102040.88;112338;1192;74009;-74
2021/10/10 10:27:50;;;;;;;13.10;4.60;;;;;;;13.92;52.41;102042.48;112185;1191;60968;-73
2021/10/10 10:30:19;;;;;;;7.40;4.20;;;;;;;14.13;49.90;102048.33;112217;1192;61030;-74
2021/10/10 10:32:47;;;;;;;10.80;4.60;;;;;;;14.27;50.26;102049.94;112244;1193;74345;-73
2021/10/10 10:35:16;;;;;;;7.60;4.20;;;;;;;14.47;50.37;102053.55;112200;1192;72322;-72
2021/10/10 10:37:43;;;;;;;7.50;4.90;;;;;;;14.60;47.31;102053.05;112369;1193;73099;-74
2021/10/10 10:40:16;;;;;;;9.70;4.80;;;;;;;14.67;47.29;102055.07;112195;1193;61061;-75
2021/10/10 10:42:47;;;;;;;6.50;3.90;;;;;;;14.78;47.27;102052.88;112031;1193;62446;-75
2021/10/10 10:45:25;;;;;;;6.90;3.40;;;;;;;14.82;47.50;102053.21;112434;1192;74623;-73
2021/10/10 10:47:54;;;;;;;5.20;3.70;;;;;;;14.88;47.40;102038.66;112207;1191;71313;-73
2021/10/10 10:50:23;;;;;;;12.50;5.00;;;;;;;14.91;47.12;102040.34;112239;1193;72725;-73
2021/10/10 10:53:03;;;;;;;5.70;3.70;;;;;;;14.88;46.80;102041.75;112104;1192;61956;-74
2021/10/10 10:55:38;;;;;;;6.50;3.70;;;;;;;14.90;46.92;102042.98;112473;1192;61076;-75
2021/10/10 10:58:15;;;;;;;9.80;4.90;;;;;;;14.92;46.77;102040.42;112199;1193;74679;-73
2021/10/10 11:00:44;;;;;;;8.40;5.10;;;;;;;14.93;46.11;102035.52;112333;1193;72031;-74
2021/10/10 11:03:21;;;;;;;5.60;3.80;;;;;;;14.97;46.10;102036.32;112292;1192;73239;-74
2021/10/10 11:05:54;;;;;;;7.40;4.30;;;;;;;15.09;46.39;102039.25;112122;1193;60978;-74
2021/10/10 11:08:27;;;;;;;5.70;3.90;;;;;;;15.22;45.43;102034.23;112186;1193;61016;-74
2021/10/10 11:10:59;;;;;;;7.70;4.40;;;;;;;15.40;45.62;102027.17;112068;1193;75934;-74
2021/10/10 11:13:28;;;;;;;6.80;3.90;;;;;;;15.63;45.32;102026.39;112237;1193;71142;-73
2021/10/10 11:16:15;;;;;;;7.20;4.40;;;;;;;15.87;44.94;102027.73;112341;1193;72507;-74
2021/10/10 11:18:44;;;;;;;7.60;3.80;;;;;;;16.20;44.95;102024.83;112363;1192;61020;-74
2021/10/10 11:21:11;;;;;;;6.30;4.40;;;;;;;16.42;42.71;102017.59;112366;1193;62150;-74
2021/10/10 11:23:38;;;;;;;7.70;5.40;;;;;;;16.60;42.38;102010.79;112387;1193;74325;-73
2021/10/10 11:26:11;;;;;;;8.40;5.90;;;;;;;16.79;42.62;102002.17;112251;1177;73210;-75
2021/10/10 11:28:46;;;;;;;6.60;2.90;;;;;;;16.98;42.18;101997.96;112470;1192;74299;-74
2021/10/10 11:31:18;;;;;;;9.70;3.80;;;;;;;17.13;41.72;101993.91;112425;1191;62220;-74
2021/10/10 11:33:55;;;;;;;9.10;6.00;;;;;;;17.24;40.96;101985.23;112415;1193;61577;-73